createdAt,value
2022-12-22T00:00:24.393Z,7.20
2022-12-22T00:03:09.541Z,7.20
2022-12-22T00:05:54.809Z,7.20
2022-12-22T00:08:40.203Z,7.20
2022-12-22T00:11:31.127Z,7.20
2022-12-22T00:14:17.965Z,7.20
2022-12-22T00:17:03.646Z,7.20
2022-12-22T00:19:48.989Z,7.20
2022-12-22T00:22:41.299Z,7.20
2022-12-22T00:25:32.943Z,7.20
2022-12-22T00:28:18.361Z,7.20
2022-12-22T00:31:04.937Z,7.20
2022-12-22T00:33:50.324Z,7.20
2022-12-22T00:36:36.492Z,7.20
2022-12-22T00:39:21.779Z,7.20
2022-12-22T00:42:07.151Z,7.20
2022-12-22T00:44:52.657Z,7.18
2022-12-22T00:47:47.380Z,7.20
2022-12-22T00:50:33.969Z,7.20
2022-12-22T00:53:19.375Z,7.20
2022-12-22T00:56:05.079Z,7.20
2022-12-22T00:58:50.648Z,7.12
2022-12-22T01:01:36.561Z,7.10
2022-12-22T01:04:21.867Z,7.10
2022-12-22T01:07:07.459Z,7.10
2022-12-22T01:09:54.365Z,7.10
2022-12-22T01:12:44.344Z,7.10
2022-12-22T01:15:39.029Z,7.10
2022-12-22T01:18:25.330Z,7.10
2022-12-22T01:21:11.910Z,7.10
2022-12-22T01:23:58.980Z,7.10
2022-12-22T01:26:44.541Z,7.10
2022-12-22T01:29:30.162Z,7.10
2022-12-22T01:32:15.319Z,7.12
2022-12-22T01:35:01.377Z,7.20
2022-12-22T01:37:47.018Z,7.20
2022-12-22T01:40:39.712Z,7.20
2022-12-22T01:43:41.512Z,7.20
2022-12-22T01:46:44.851Z,7.20
2022-12-22T01:49:47.646Z,7.20
2022-12-22T01:52:36.625Z,7.20
2022-12-22T01:55:29.842Z,7.20
2022-12-22T01:58:15.762Z,7.20
2022-12-22T02:01:01.663Z,7.20
2022-12-22T02:03:46.993Z,7.20
2022-12-22T02:06:59.992Z,7.20
2022-12-22T02:10:07.257Z,7.20
2022-12-22T02:13:43.876Z,7.14
2022-12-22T02:16:50.695Z,7.14
2022-12-22T02:20:14.862Z,7.14
2022-12-22T02:23:57.068Z,7.20
2022-12-22T02:26:53.086Z,7.20
2022-12-22T02:29:47.861Z,7.20
2022-12-22T02:32:33.548Z,7.20
2022-12-22T02:35:19.177Z,7.30
2022-12-22T02:38:25.110Z,7.30
2022-12-22T02:41:50.930Z,7.30
2022-12-22T02:44:59.444Z,7.40
2022-12-22T02:48:11.874Z,7.40
2022-12-22T02:51:06.057Z,7.40
2022-12-22T02:53:51.977Z,7.50
2022-12-22T02:56:37.943Z,7.50
2022-12-22T02:59:23.262Z,7.50
2022-12-22T03:02:08.807Z,7.54
2022-12-22T03:04:54.167Z,7.60
2022-12-22T03:07:39.274Z,7.60
2022-12-22T03:10:25.494Z,7.62
2022-12-22T03:13:10.508Z,7.70
2022-12-22T03:15:56.237Z,7.70
2022-12-22T03:18:41.652Z,7.70
2022-12-22T03:21:27.232Z,7.80
2022-12-22T03:24:12.953Z,7.82
2022-12-22T03:26:39.554Z,7.90
2022-12-22T03:29:06.775Z,7.96
2022-12-22T03:31:33.416Z,8.00
2022-12-22T03:34:00.122Z,8.00
2022-12-22T03:36:26.848Z,8.10
2022-12-22T03:38:53.409Z,8.10
2022-12-22T03:41:39.128Z,8.20
2022-12-22T03:44:24.805Z,8.20
2022-12-22T03:46:51.416Z,8.30
2022-12-22T03:49:19.349Z,8.32
2022-12-22T03:51:51.256Z,8.40
2022-12-22T03:54:22.008Z,8.40
2022-12-22T03:56:49.133Z,8.40
2022-12-22T03:59:16.771Z,8.46
2022-12-22T04:01:50.430Z,8.50
2022-12-22T04:04:20.229Z,8.50
2022-12-22T04:06:47.965Z,8.50
2022-12-22T04:09:14.794Z,8.50
2022-12-22T04:12:00.732Z,8.50
2022-12-22T04:14:33.378Z,8.50
2022-12-22T04:17:04.272Z,8.50
2022-12-22T04:19:31.899Z,8.50
2022-12-22T04:21:59.031Z,8.50
2022-12-22T04:24:25.769Z,8.50
2022-12-22T04:26:52.794Z,8.50
2022-12-22T04:29:19.405Z,8.50
2022-12-22T04:31:46.298Z,8.50
2022-12-22T04:34:12.946Z,8.50
2022-12-22T04:36:39.553Z,8.50
2022-12-22T04:39:06.121Z,8.54
2022-12-22T04:41:32.691Z,8.50
2022-12-22T04:43:59.261Z,8.56
2022-12-22T04:46:26.204Z,8.60
2022-12-22T04:48:57.861Z,8.60
2022-12-22T04:51:26.479Z,8.60
2022-12-22T04:53:53.107Z,8.60
2022-12-22T04:56:19.877Z,8.60
2022-12-22T04:58:46.519Z,8.68
2022-12-22T05:01:17.448Z,8.70
2022-12-22T05:03:44.772Z,8.70
2022-12-22T05:06:12.082Z,8.70
2022-12-22T05:08:38.850Z,8.70
2022-12-22T05:11:06.539Z,8.80
2022-12-22T05:13:33.859Z,8.80
2022-12-22T05:16:06.820Z,8.80
2022-12-22T05:18:35.413Z,8.90
2022-12-22T05:21:04.845Z,8.90
2022-12-22T05:23:31.639Z,8.90
2022-12-22T05:25:58.250Z,8.90
2022-12-22T05:28:24.839Z,8.90
2022-12-22T05:30:51.767Z,8.80
2022-12-22T05:33:18.385Z,8.80
2022-12-22T05:35:44.962Z,8.80
2022-12-22T05:38:11.568Z,8.70
2022-12-22T05:40:38.298Z,8.70
2022-12-22T05:43:05.648Z,8.60
2022-12-22T05:45:32.269Z,8.50
2022-12-22T05:47:58.792Z,8.40
2022-12-22T05:50:26.127Z,8.30
2022-12-22T05:53:06.094Z,8.20
2022-12-22T05:55:33.415Z,8.12
2022-12-22T05:58:03.827Z,8.10
2022-12-22T06:00:32.054Z,8.00
2022-12-22T06:02:59.143Z,7.98
2022-12-22T06:05:26.019Z,7.90
2022-12-22T06:07:52.659Z,7.80
2022-12-22T06:10:20.629Z,7.80
2022-12-22T06:12:47.219Z,7.78
2022-12-22T06:15:15.357Z,7.70
2022-12-22T06:17:45.107Z,7.70
2022-12-22T06:20:13.963Z,7.66
2022-12-22T06:22:40.699Z,7.64
2022-12-22T06:25:10.809Z,7.70
2022-12-22T06:27:40.419Z,7.80
2022-12-22T06:30:08.141Z,7.90
2022-12-22T06:32:39.404Z,8.00
2022-12-22T06:35:08.653Z,8.10
2022-12-22T06:37:35.669Z,8.10
2022-12-22T06:40:03.526Z,8.20
2022-12-22T06:42:48.677Z,8.30
2022-12-22T06:45:15.434Z,8.40
2022-12-22T06:47:42.233Z,8.44
2022-12-22T06:50:09.415Z,8.50
2022-12-22T06:52:36.214Z,8.52
2022-12-22T06:55:03.560Z,8.60
2022-12-22T06:57:30.199Z,8.64
2022-12-22T06:59:57.854Z,8.70
2022-12-22T07:02:25.732Z,8.80
2022-12-22T07:04:52.644Z,8.90
2022-12-22T07:07:19.403Z,8.90
2022-12-22T07:09:46.081Z,9.00
2022-12-22T07:12:13.729Z,9.02
2022-12-22T07:14:40.876Z,9.10
2022-12-22T07:17:09.029Z,9.20
2022-12-22T07:19:35.796Z,9.20
2022-12-22T07:22:02.361Z,9.30
2022-12-22T07:24:29.496Z,9.30
2022-12-22T07:26:56.170Z,9.30
2022-12-22T07:29:23.661Z,9.30
2022-12-22T07:31:50.584Z,9.30
2022-12-22T07:34:17.776Z,9.30
2022-12-22T07:36:44.542Z,9.30
2022-12-22T07:39:12.888Z,9.30
2022-12-22T07:41:58.679Z,9.30
2022-12-22T07:44:25.708Z,9.32
2022-12-22T07:46:52.388Z,9.40
2022-12-22T07:49:37.732Z,9.40
2022-12-22T07:52:04.583Z,9.46
2022-12-22T07:54:34.082Z,9.50
2022-12-22T07:57:03.688Z,9.50
2022-12-22T07:59:30.345Z,9.52
2022-12-22T08:01:57.042Z,9.60
2022-12-22T08:04:23.916Z,9.60
2022-12-22T08:06:50.528Z,9.66
2022-12-22T08:09:21.597Z,9.70
2022-12-22T08:11:49.748Z,9.70
2022-12-22T08:14:16.285Z,9.80
2022-12-22T08:16:43.109Z,9.80
2022-12-22T08:19:09.948Z,9.90
2022-12-22T08:21:36.615Z,10.00
2022-12-22T08:24:03.303Z,10.00
2022-12-22T08:26:44.464Z,10.10
2022-12-22T08:29:21.519Z,10.16
2022-12-22T08:31:48.198Z,10.20
2022-12-22T08:34:16.709Z,10.20
2022-12-22T08:36:49.899Z,10.30
2022-12-22T08:39:19.473Z,10.30
2022-12-22T08:41:52.046Z,10.40
2022-12-22T08:44:29.936Z,10.50
2022-12-22T08:46:59.078Z,10.60
2022-12-22T08:49:26.935Z,10.70
2022-12-22T08:51:54.743Z,10.80
2022-12-22T08:54:21.523Z,10.80
2022-12-22T08:56:48.377Z,10.82
2022-12-22T08:59:15.317Z,10.90
2022-12-22T09:01:44.718Z,11.00
2022-12-22T09:04:19.261Z,11.00
2022-12-22T09:06:46.816Z,11.10
2022-12-22T09:09:15.285Z,11.10
2022-12-22T09:11:42.582Z,11.10
2022-12-22T09:14:10.951Z,11.12
2022-12-22T09:16:39.176Z,11.20
2022-12-22T09:19:06.854Z,11.20
2022-12-22T09:21:35.021Z,11.20
2022-12-22T09:24:01.754Z,11.20
2022-12-22T09:26:29.393Z,11.22
2022-12-22T09:28:57.968Z,11.24
2022-12-22T09:31:26.416Z,11.30
2022-12-22T09:33:53.897Z,11.30
2022-12-22T09:36:25.886Z,11.30
2022-12-22T09:38:54.092Z,11.30
2022-12-22T09:41:31.829Z,11.40
2022-12-22T09:44:05.033Z,11.46
2022-12-22T09:46:36.371Z,11.50
2022-12-22T09:49:06.649Z,11.58
2022-12-22T09:51:45.090Z,11.60
2022-12-22T09:54:13.903Z,11.70
2022-12-22T09:56:40.722Z,11.80
2022-12-22T09:59:28.739Z,12.22
2022-12-22T10:02:31.546Z,12.48
2022-12-22T10:05:44.458Z,12.86
2022-12-22T10:08:27.030Z,13.10
2022-12-22T10:10:54.936Z,13.10
2022-12-22T10:13:21.912Z,13.40
2022-12-22T10:15:49.373Z,13.40
2022-12-22T10:18:27.347Z,13.40
2022-12-22T10:21:14.961Z,13.40
2022-12-22T10:23:46.500Z,13.30
2022-12-22T10:26:31.318Z,13.20
2022-12-22T10:29:11.262Z,13.10
2022-12-22T10:32:11.767Z,13.00
2022-12-22T10:35:06.186Z,12.90
2022-12-22T10:37:36.721Z,12.90
2022-12-22T10:40:22.643Z,12.80
2022-12-22T10:42:55.853Z,12.80
2022-12-22T10:45:26.980Z,12.70
2022-12-22T10:47:57.264Z,12.70
2022-12-22T10:50:24.164Z,12.70
2022-12-22T10:52:54.078Z,12.68
2022-12-22T10:55:28.612Z,12.66
2022-12-22T10:58:19.477Z,12.62
2022-12-22T11:01:03.984Z,12.60
2022-12-22T11:03:32.162Z,12.60
2022-12-22T11:06:00.785Z,12.70
2022-12-22T11:08:29.913Z,12.70
2022-12-22T11:11:10.799Z,12.70
2022-12-22T11:13:53.333Z,12.70
2022-12-22T11:16:44.199Z,12.64
2022-12-22T11:19:20.806Z,12.50
2022-12-22T11:22:06.345Z,12.40
2022-12-22T11:24:46.633Z,12.30
2022-12-22T11:28:03.325Z,12.18
2022-12-22T11:30:55.616Z,12.10
2022-12-22T11:34:20.785Z,12.00
2022-12-22T11:37:21.447Z,11.90
2022-12-22T11:40:04.600Z,11.80
2022-12-22T11:43:21.641Z,11.70
2022-12-22T11:46:28.883Z,11.64
2022-12-22T11:49:29.697Z,11.60
2022-12-22T11:52:17.699Z,11.50
2022-12-22T11:55:15.788Z,11.50
2022-12-22T11:58:36.165Z,11.42
2022-12-22T12:01:45.522Z,11.40
2022-12-22T12:08:24.623Z,11.50
2022-12-22T12:11:34.668Z,11.50
2022-12-22T12:14:13.188Z,11.50
2022-12-22T12:16:56.587Z,11.60
2022-12-22T12:19:26.901Z,11.60
2022-12-22T12:21:59.368Z,11.60
2022-12-22T12:24:44.072Z,11.60
2022-12-22T12:27:56.333Z,11.60
2022-12-22T12:30:40.327Z,11.60
2022-12-22T12:33:17.258Z,11.70
2022-12-22T12:36:16.088Z,11.66
2022-12-22T12:39:08.379Z,11.70
2022-12-22T12:41:41.583Z,11.80
2022-12-22T12:44:19.446Z,11.80
2022-12-22T12:46:55.209Z,11.80
2022-12-22T12:50:25.935Z,11.88
2022-12-22T12:52:52.515Z,11.90
2022-12-22T12:55:36.174Z,11.90
2022-12-22T12:58:04.305Z,11.90
2022-12-22T13:00:34.600Z,11.90
2022-12-22T13:04:02.427Z,12.00
2022-12-22T13:06:49.391Z,12.00
2022-12-22T13:12:39.965Z,12.00
2022-12-22T13:15:38.117Z,12.00
2022-12-22T13:18:34.668Z,12.00
2022-12-22T13:21:51.442Z,12.00
2022-12-22T13:24:30.356Z,12.00
2022-12-22T13:27:04.836Z,12.00
2022-12-22T13:29:45.025Z,12.00
2022-12-22T13:32:22.097Z,11.98
2022-12-22T13:35:35.513Z,11.98
2022-12-22T13:38:03.509Z,11.94
2022-12-22T13:40:40.850Z,11.92
2022-12-22T13:43:15.169Z,11.90
2022-12-22T13:45:55.711Z,11.90
2022-12-22T13:48:31.107Z,11.90
2022-12-22T13:51:00.940Z,11.90
2022-12-22T13:54:12.100Z,11.90
2022-12-22T13:56:53.398Z,11.90
2022-12-22T13:59:35.888Z,11.90
2022-12-22T14:02:24.602Z,11.90
2022-12-22T14:05:11.448Z,11.94
2022-12-22T14:07:38.326Z,12.00
2022-12-22T14:10:06.059Z,12.00
2022-12-22T14:12:41.851Z,12.00
2022-12-22T14:15:17.348Z,12.00
2022-12-22T14:17:52.211Z,12.00
2022-12-22T14:20:40.654Z,12.00
2022-12-22T14:23:27.326Z,12.00
2022-12-22T14:25:56.036Z,12.00
2022-12-22T14:28:28.439Z,12.00
2022-12-22T14:30:59.258Z,12.00
2022-12-22T14:33:29.936Z,12.00
2022-12-22T14:36:24.001Z,12.00
2022-12-22T14:38:54.959Z,12.00
2022-12-22T14:41:43.342Z,12.00
2022-12-22T14:44:24.444Z,12.00
2022-12-22T14:47:18.046Z,11.92
2022-12-22T14:49:53.315Z,11.90
2022-12-22T14:52:39.630Z,11.90
2022-12-22T14:55:24.350Z,11.90
2022-12-22T14:58:34.448Z,11.80
2022-12-22T15:01:28.277Z,11.80
2022-12-22T15:04:17.165Z,11.80
2022-12-22T15:06:48.936Z,11.80
2022-12-22T15:09:15.535Z,11.80
2022-12-22T15:11:47.157Z,11.80
2022-12-22T15:14:21.403Z,11.80
2022-12-22T15:16:48.251Z,11.70
2022-12-22T15:19:17.682Z,11.72
2022-12-22T15:21:44.647Z,11.70
2022-12-22T15:24:15.495Z,11.70
2022-12-22T15:26:43.119Z,11.70
2022-12-22T15:29:09.833Z,11.70
2022-12-22T15:31:38.883Z,11.70
2022-12-22T15:34:22.998Z,11.70
2022-12-22T15:36:50.117Z,11.70
2022-12-22T15:39:19.728Z,11.70
2022-12-22T15:41:47.523Z,11.64
2022-12-22T15:44:14.669Z,11.60
2022-12-22T15:46:45.135Z,11.60
2022-12-22T15:49:26.028Z,11.60
2022-12-22T15:52:01.227Z,11.60
2022-12-22T15:54:31.054Z,11.60
2022-12-22T15:56:57.744Z,11.60
2022-12-22T15:59:27.057Z,11.60
2022-12-22T16:02:00.569Z,11.60
2022-12-22T16:04:29.704Z,11.60
2022-12-22T16:06:58.355Z,11.60
2022-12-22T16:09:32.577Z,11.60
2022-12-22T16:11:59.229Z,11.60
2022-12-22T16:14:25.960Z,11.60
2022-12-22T16:16:52.634Z,11.60
2022-12-22T16:19:19.640Z,11.60
2022-12-22T16:21:50.505Z,11.60
2022-12-22T16:24:34.872Z,11.50
2022-12-22T16:27:02.500Z,11.50
2022-12-22T16:29:29.312Z,11.50
2022-12-22T16:32:18.294Z,11.50
2022-12-22T16:34:45.462Z,11.50
2022-12-22T16:37:12.171Z,11.50
2022-12-22T16:39:38.705Z,11.50
2022-12-22T16:44:59.776Z,11.50
2022-12-22T16:47:31.480Z,11.42
2022-12-22T16:50:00.658Z,11.40
2022-12-22T16:52:40.407Z,11.40
2022-12-22T16:55:22.691Z,11.40
2022-12-22T16:57:49.364Z,11.40
2022-12-22T17:00:29.722Z,11.40
2022-12-22T17:03:12.351Z,11.30
2022-12-22T17:05:55.701Z,11.30
2022-12-22T17:08:30.223Z,11.30
2022-12-22T17:11:01.188Z,11.30
2022-12-22T17:13:33.026Z,11.20
2022-12-22T17:16:01.574Z,11.20
2022-12-22T17:18:30.935Z,11.20
2022-12-22T17:20:59.494Z,11.20
2022-12-22T17:23:34.297Z,11.20
2022-12-22T17:26:06.067Z,11.20
2022-12-22T17:28:34.600Z,11.20
2022-12-22T17:31:01.613Z,11.20
2022-12-22T17:33:28.362Z,11.20
2022-12-22T17:35:56.989Z,11.20
2022-12-22T17:38:27.166Z,11.20
2022-12-22T17:40:54.257Z,11.20
2022-12-22T17:43:21.669Z,11.20
2022-12-22T17:45:49.190Z,11.20
2022-12-22T17:48:17.489Z,11.20
2022-12-22T17:50:49.591Z,11.20
2022-12-22T17:53:21.828Z,11.20
2022-12-22T17:58:35.905Z,11.20
2022-12-22T18:01:02.506Z,11.20
2022-12-22T18:03:29.243Z,11.20
2022-12-22T18:05:55.833Z,11.20
2022-12-22T18:08:22.508Z,11.20
2022-12-22T18:10:49.638Z,11.10
2022-12-22T18:13:26.305Z,11.10
2022-12-22T18:15:55.860Z,11.10
2022-12-22T18:18:22.872Z,11.10
2022-12-22T18:21:06.851Z,11.08
2022-12-22T18:23:36.567Z,11.00
2022-12-22T18:26:06.323Z,11.00
2022-12-22T18:28:33.028Z,11.00
2022-12-22T18:30:59.679Z,11.00
2022-12-22T18:33:26.274Z,11.00
2022-12-22T18:35:53.177Z,11.00
2022-12-22T18:38:47.309Z,11.00
2022-12-22T18:41:23.334Z,11.00
2022-12-22T18:43:50.949Z,11.00
2022-12-22T18:46:18.988Z,11.00
2022-12-22T18:48:47.532Z,11.00
2022-12-22T18:51:23.665Z,11.00
2022-12-22T18:53:54.872Z,11.00
2022-12-22T18:56:22.078Z,10.96
2022-12-22T18:58:49.194Z,10.90
2022-12-22T19:01:27.100Z,10.84
2022-12-22T19:03:56.808Z,10.80
2022-12-22T19:06:24.470Z,10.80
2022-12-22T19:08:52.523Z,10.76
2022-12-22T19:11:26.942Z,10.70
2022-12-22T19:13:53.800Z,10.70
2022-12-22T19:16:26.063Z,10.70
2022-12-22T19:18:52.783Z,10.62
2022-12-22T19:21:19.884Z,10.60
2022-12-22T19:23:46.770Z,10.60
2022-12-22T19:26:27.268Z,10.60
2022-12-22T19:29:00.671Z,10.60
2022-12-22T19:31:32.590Z,10.56
2022-12-22T19:34:04.101Z,10.54
2022-12-22T19:36:33.897Z,10.50
2022-12-22T19:39:04.649Z,10.50
2022-12-22T19:41:43.249Z,10.50
2022-12-22T19:44:26.209Z,10.50
2022-12-22T19:46:55.285Z,10.50
2022-12-22T19:49:28.192Z,10.50
2022-12-22T19:51:56.657Z,10.40
2022-12-22T19:54:23.498Z,10.40
2022-12-22T19:56:55.119Z,10.40
2022-12-22T19:59:29.547Z,10.40
2022-12-22T20:01:58.936Z,10.48
2022-12-22T20:04:26.102Z,10.50
2022-12-22T20:06:52.693Z,10.50
2022-12-22T20:09:19.301Z,10.50
2022-12-22T20:11:46.385Z,10.52
2022-12-22T20:14:20.395Z,10.58
2022-12-22T20:16:47.216Z,10.58
2022-12-22T20:19:15.030Z,10.60
2022-12-22T20:21:42.119Z,10.60
2022-12-22T20:24:20.350Z,10.60
2022-12-22T20:26:53.512Z,10.60
2022-12-22T20:29:21.138Z,10.62
2022-12-22T20:31:47.900Z,10.70
2022-12-22T20:34:14.541Z,10.70
2022-12-22T20:36:43.169Z,10.70
2022-12-22T20:39:14.382Z,10.70
2022-12-22T20:41:43.443Z,10.70
2022-12-22T20:44:12.398Z,10.80
2022-12-22T20:46:40.273Z,10.80
2022-12-22T20:49:15.302Z,10.80
2022-12-22T20:51:42.165Z,10.80
2022-12-22T20:54:14.867Z,10.80
2022-12-22T20:56:44.362Z,10.80
2022-12-22T20:59:21.844Z,10.80
2022-12-22T21:01:50.907Z,10.80
2022-12-22T21:04:18.666Z,10.80
2022-12-22T21:06:56.676Z,10.88
2022-12-22T21:09:25.974Z,10.88
2022-12-22T21:11:52.850Z,10.90
2022-12-22T21:14:19.570Z,10.90
2022-12-22T21:16:46.323Z,10.90
2022-12-22T21:19:19.258Z,10.90
2022-12-22T21:21:46.943Z,10.90
2022-12-22T21:24:13.756Z,10.90
2022-12-22T21:26:53.267Z,10.90
2022-12-22T21:29:25.077Z,10.90
2022-12-22T21:31:51.900Z,10.90
2022-12-22T21:34:21.116Z,10.90
2022-12-22T21:36:54.272Z,10.90
2022-12-22T21:39:39.181Z,10.90
2022-12-22T21:42:06.611Z,10.90
2022-12-22T21:44:36.168Z,10.90
2022-12-22T21:47:03.790Z,10.90
2022-12-22T21:49:33.235Z,10.90
2022-12-22T21:52:00.079Z,10.90
2022-12-22T21:54:27.951Z,10.90
2022-12-22T21:56:55.028Z,10.90
2022-12-22T21:59:22.570Z,10.90
2022-12-22T22:01:52.468Z,10.90
2022-12-22T22:04:20.436Z,10.90
2022-12-22T22:06:47.018Z,10.90
2022-12-22T22:09:13.822Z,10.90
2022-12-22T22:11:59.500Z,10.90
2022-12-22T22:14:27.319Z,10.90
2022-12-22T22:16:54.353Z,10.90
2022-12-22T22:19:21.123Z,10.90
2022-12-22T22:21:48.163Z,10.90
2022-12-22T22:24:14.843Z,10.90
2022-12-22T22:26:45.850Z,10.90
2022-12-22T22:29:12.553Z,10.88
2022-12-22T22:31:41.446Z,10.80
2022-12-22T22:34:08.960Z,10.80
2022-12-22T22:36:35.677Z,10.80
2022-12-22T22:39:02.422Z,10.80
2022-12-22T22:41:33.156Z,10.80
2022-12-22T22:44:01.919Z,10.80
2022-12-22T22:46:28.543Z,10.80
2022-12-22T22:48:58.619Z,10.80
2022-12-22T22:51:25.584Z,10.80
2022-12-22T22:53:52.549Z,10.80
2022-12-22T22:56:19.224Z,10.80
2022-12-22T22:58:45.827Z,10.70
2022-12-22T23:01:12.549Z,10.70
2022-12-22T23:03:39.335Z,10.70
2022-12-22T23:06:10.314Z,10.70
2022-12-22T23:08:37.309Z,10.70
2022-12-22T23:11:05.593Z,10.70
2022-12-22T23:13:32.723Z,10.70
2022-12-22T23:16:02.696Z,10.70
2022-12-22T23:18:30.896Z,10.70
2022-12-22T23:20:59.355Z,10.70
2022-12-22T23:23:25.955Z,10.70
2022-12-22T23:25:52.576Z,10.60
2022-12-22T23:28:19.477Z,10.60
2022-12-22T23:30:52.568Z,10.60
2022-12-22T23:33:20.555Z,10.60
2022-12-22T23:35:49.924Z,10.60
2022-12-22T23:38:23.377Z,10.60
2022-12-22T23:40:53.140Z,10.60
2022-12-22T23:43:21.225Z,10.54
2022-12-22T23:45:47.934Z,10.50
2022-12-22T23:48:15.101Z,10.50
2022-12-22T23:50:41.992Z,10.50
2022-12-22T23:53:08.759Z,10.50
2022-12-22T23:55:35.434Z,10.50
2022-12-22T23:58:01.995Z,10.44
